createdAt,value
2023-09-04T00:02:10.071Z,20.20
2023-09-04T00:04:36.955Z,20.20
2023-09-04T00:07:04.126Z,20.20
2023-09-04T00:09:31.044Z,20.10
2023-09-04T00:11:57.907Z,20.10
2023-09-04T00:14:24.826Z,20.10
2023-09-04T00:16:51.632Z,20.10
2023-09-04T00:19:18.901Z,20.10
2023-09-04T00:21:45.892Z,20.10
2023-09-04T00:24:12.712Z,20.00
2023-09-04T00:26:39.681Z,20.00
2023-09-04T00:29:06.475Z,20.00
2023-09-04T00:31:33.627Z,20.00
2023-09-04T00:34:00.771Z,19.90
2023-09-04T00:36:27.650Z,19.90
2023-09-04T00:38:54.482Z,19.80
2023-09-04T00:41:21.414Z,19.80
2023-09-04T00:43:48.310Z,19.80
2023-09-04T00:46:15.409Z,19.70
2023-09-04T00:48:42.974Z,19.70
2023-09-04T00:51:11.064Z,19.80
2023-09-04T00:53:39.097Z,19.70
2023-09-04T00:56:07.475Z,19.60
2023-09-04T00:58:35.935Z,19.60
2023-09-04T01:01:03.743Z,19.50
2023-09-04T01:03:31.777Z,19.50
2023-09-04T01:06:00.654Z,19.50
2023-09-04T01:08:27.810Z,19.50
2023-09-04T01:11:15.762Z,19.40
2023-09-04T01:13:48.107Z,19.40
2023-09-04T01:16:16.207Z,19.40
2023-09-04T01:18:43.744Z,19.30
2023-09-04T01:21:10.832Z,19.30
2023-09-04T01:23:37.793Z,19.20
2023-09-04T01:26:26.096Z,19.20
2023-09-04T01:29:17.547Z,19.30
2023-09-04T01:31:49.738Z,19.20
2023-09-04T01:34:25.607Z,19.20
2023-09-04T01:36:58.303Z,19.10
2023-09-04T01:39:27.764Z,19.10
2023-09-04T01:41:54.707Z,19.00
2023-09-04T01:44:21.541Z,19.00
2023-09-04T01:46:48.537Z,19.00
2023-09-04T01:49:16.255Z,19.00
2023-09-04T01:51:43.115Z,19.00
2023-09-04T01:54:10.162Z,19.00
2023-09-04T01:56:37.004Z,19.00
2023-09-04T01:59:04.220Z,19.00
2023-09-04T02:01:31.236Z,19.00
2023-09-04T02:03:59.345Z,19.00
2023-09-04T02:06:28.259Z,19.00
2023-09-04T02:08:56.812Z,19.00
2023-09-04T02:11:24.378Z,19.00
2023-09-04T02:13:51.421Z,18.90
2023-09-04T02:16:18.578Z,18.90
2023-09-04T02:18:45.500Z,18.90
2023-09-04T02:21:12.408Z,18.90
2023-09-04T02:23:39.307Z,18.90
2023-09-04T02:26:07.065Z,18.90
2023-09-04T02:28:33.945Z,18.80
2023-09-04T02:31:08.445Z,18.80
2023-09-04T02:33:35.891Z,18.80
2023-09-04T02:36:02.845Z,18.80
2023-09-04T02:38:29.853Z,18.80
2023-09-04T02:40:56.730Z,18.70
2023-09-04T02:43:23.615Z,18.70
2023-09-04T02:45:50.476Z,18.60
2023-09-04T02:48:17.459Z,18.60
2023-09-04T02:50:44.369Z,18.60
2023-09-04T02:53:11.321Z,18.60
2023-09-04T02:55:38.168Z,18.50
2023-09-04T02:58:05.079Z,18.50
2023-09-04T03:00:31.984Z,18.40
2023-09-04T03:02:59.125Z,18.40
2023-09-04T03:05:27.340Z,18.30
2023-09-04T03:07:54.192Z,18.30
2023-09-04T03:10:21.181Z,18.20
2023-09-04T03:12:48.015Z,18.20
2023-09-04T03:15:16.150Z,18.20
2023-09-04T03:17:43.574Z,18.20
2023-09-04T03:20:11.453Z,18.20
2023-09-04T03:22:39.332Z,18.20
2023-09-04T03:25:06.784Z,18.20
2023-09-04T03:27:34.761Z,18.20
2023-09-04T03:30:02.607Z,18.20
2023-09-04T03:32:29.533Z,18.20
2023-09-04T03:34:56.668Z,18.20
2023-09-04T03:37:23.631Z,18.20
2023-09-04T03:39:50.573Z,18.20
2023-09-04T03:42:17.787Z,18.20
2023-09-04T03:44:44.643Z,18.20
2023-09-04T03:47:12.697Z,18.20
2023-09-04T03:49:39.579Z,18.20
2023-09-04T03:52:06.792Z,18.20
2023-09-04T03:54:33.719Z,18.20
2023-09-04T03:57:00.750Z,18.20
2023-09-04T03:59:27.602Z,18.10
2023-09-04T04:01:54.728Z,18.10
2023-09-04T04:04:21.661Z,18.10
2023-09-04T04:06:48.549Z,18.10
2023-09-04T04:09:16.952Z,18.10
2023-09-04T04:11:44.700Z,18.10
2023-09-04T04:14:12.649Z,18.10
2023-09-04T04:16:39.681Z,18.10
2023-09-04T04:19:07.682Z,18.10
2023-09-04T04:21:34.623Z,18.10
2023-09-04T04:24:01.439Z,18.00
2023-09-04T04:26:28.897Z,18.10
2023-09-04T04:28:55.792Z,18.00
2023-09-04T04:31:23.534Z,18.00
2023-09-04T04:33:50.642Z,18.00
2023-09-04T04:36:18.785Z,18.00
2023-09-04T04:38:46.120Z,18.00
2023-09-04T04:41:13.347Z,18.00
2023-09-04T04:43:40.208Z,18.00
2023-09-04T04:46:10.369Z,17.90
2023-09-04T04:48:37.280Z,18.00
2023-09-04T04:51:04.995Z,17.90
2023-09-04T04:53:32.784Z,17.90
2023-09-04T04:56:01.483Z,17.90
2023-09-04T04:58:28.432Z,17.80
2023-09-04T05:00:55.208Z,17.80
2023-09-04T05:03:23.566Z,17.80
2023-09-04T05:05:50.517Z,17.80
2023-09-04T05:08:17.921Z,17.80
2023-09-04T05:10:45.447Z,17.70
2023-09-04T05:13:13.615Z,17.70
2023-09-04T05:15:40.546Z,17.70
2023-09-04T05:18:08.185Z,17.70
2023-09-04T05:20:39.072Z,17.70
2023-09-04T05:23:05.959Z,17.70
2023-09-04T05:25:32.799Z,17.70
2023-09-04T05:27:59.908Z,17.70
2023-09-04T05:30:26.784Z,17.70
2023-09-04T05:32:56.733Z,17.70
2023-09-04T05:35:23.637Z,17.70
2023-09-04T05:37:50.561Z,17.70
2023-09-04T05:40:17.761Z,17.80
2023-09-04T05:42:44.669Z,17.80
2023-09-04T05:45:11.655Z,17.90
2023-09-04T05:47:38.623Z,18.10
2023-09-04T05:50:08.285Z,18.30
2023-09-04T05:52:38.076Z,18.40
2023-09-04T05:55:05.479Z,18.70
2023-09-04T05:57:32.370Z,18.90
2023-09-04T06:00:00.038Z,19.10
2023-09-04T06:02:28.313Z,19.40
2023-09-04T06:04:55.291Z,19.70
2023-09-04T06:07:22.241Z,20.00
2023-09-04T06:09:49.137Z,20.20
2023-09-04T06:12:16.509Z,20.50
2023-09-04T06:14:43.378Z,20.80
2023-09-04T06:17:10.286Z,20.90
2023-09-04T06:19:37.136Z,21.00
2023-09-04T06:22:04.081Z,21.10
2023-09-04T06:24:30.906Z,21.20
2023-09-04T06:26:57.790Z,21.30
2023-09-04T06:29:24.677Z,21.40
2023-09-04T06:31:51.534Z,21.40
2023-09-04T06:34:18.425Z,21.40
2023-09-04T06:36:45.299Z,21.30
2023-09-04T06:39:12.148Z,21.30
2023-09-04T06:41:39.037Z,21.40
2023-09-04T06:44:05.986Z,21.60
2023-09-04T06:46:33.810Z,21.60
2023-09-04T06:49:01.280Z,21.60
2023-09-04T06:51:30.067Z,21.50
2023-09-04T06:53:56.928Z,21.50
2023-09-04T06:56:23.812Z,21.60
2023-09-04T06:58:50.692Z,21.70
2023-09-04T07:01:17.552Z,21.70
2023-09-04T07:03:44.627Z,21.80
2023-09-04T07:06:11.542Z,21.90
2023-09-04T07:08:38.437Z,22.00
2023-09-04T07:11:05.300Z,22.20
2023-09-04T07:13:32.447Z,22.20
2023-09-04T07:15:59.296Z,22.30
2023-09-04T07:18:26.183Z,22.50
2023-09-04T07:20:53.091Z,22.70
2023-09-04T07:23:22.491Z,22.80
2023-09-04T07:25:53.890Z,23.00
2023-09-04T07:28:22.382Z,23.00
2023-09-04T07:30:49.257Z,23.00
2023-09-04T07:33:16.166Z,23.00
2023-09-04T07:35:42.958Z,23.10
2023-09-04T07:38:09.840Z,23.20
2023-09-04T07:40:36.743Z,23.10
2023-09-04T07:43:03.875Z,23.10
2023-09-04T07:45:30.805Z,23.10
2023-09-04T07:47:57.825Z,23.10
2023-09-04T07:50:24.775Z,23.00
2023-09-04T07:52:51.712Z,23.00
2023-09-04T07:55:18.553Z,23.00
2023-09-04T07:57:45.414Z,23.20
2023-09-04T08:00:13.655Z,23.40
2023-09-04T08:02:40.627Z,23.40
2023-09-04T08:05:07.939Z,23.60
2023-09-04T08:07:37.541Z,23.90
2023-09-04T08:10:04.753Z,24.10
2023-09-04T08:12:31.647Z,24.30
2023-09-04T08:14:58.530Z,24.30
2023-09-04T08:17:27.200Z,24.50
2023-09-04T08:19:54.260Z,24.60
2023-09-04T08:22:21.037Z,24.80
2023-09-04T08:24:49.908Z,24.90
2023-09-04T08:27:16.824Z,25.10
2023-09-04T08:29:43.688Z,25.30
2023-09-04T08:32:10.657Z,25.50
2023-09-04T08:34:37.505Z,25.60
2023-09-04T08:37:04.663Z,25.70
2023-09-04T08:39:31.512Z,25.70
2023-09-04T08:41:58.592Z,25.70
2023-09-04T08:44:26.162Z,25.70
2023-09-04T08:46:56.512Z,25.80
2023-09-04T08:49:25.294Z,25.90
2023-09-04T08:51:53.600Z,26.10
2023-09-04T08:54:20.496Z,26.40
2023-09-04T08:56:47.407Z,26.50
2023-09-04T08:59:14.299Z,26.60
2023-09-04T09:01:43.472Z,26.70
2023-09-04T09:04:11.462Z,26.80
2023-09-04T09:06:40.804Z,26.70
2023-09-04T09:09:09.235Z,26.80
2023-09-04T09:11:36.155Z,26.90
2023-09-04T09:14:03.125Z,27.00
2023-09-04T09:16:30.076Z,27.20
2023-09-04T09:18:58.405Z,27.30
2023-09-04T09:21:33.691Z,27.40
2023-09-04T09:24:10.536Z,27.50
2023-09-04T09:26:42.691Z,27.60
2023-09-04T09:29:11.397Z,27.60
2023-09-04T09:31:40.349Z,27.70
2023-09-04T09:34:07.548Z,27.80
2023-09-04T09:36:35.243Z,28.10
2023-09-04T09:39:03.004Z,28.30
2023-09-04T09:41:31.083Z,28.50
2023-09-04T09:44:01.959Z,28.80
2023-09-04T09:46:30.454Z,28.90
2023-09-04T09:48:57.536Z,29.00
2023-09-04T09:51:24.570Z,29.10
2023-09-04T09:53:53.602Z,29.20
2023-09-04T09:56:21.582Z,29.40
2023-09-04T09:58:50.313Z,29.50
2023-09-04T10:01:19.282Z,29.70
2023-09-04T10:03:48.559Z,29.60
2023-09-04T10:06:22.776Z,29.30
2023-09-04T10:08:52.523Z,29.20
2023-09-04T10:11:19.861Z,29.30
2023-09-04T10:14:05.388Z,29.50
2023-09-04T10:16:43.832Z,29.60
2023-09-04T10:19:12.369Z,29.60
2023-09-04T10:21:44.134Z,29.70
2023-09-04T10:24:14.664Z,29.90
2023-09-04T10:26:57.716Z,29.90
2023-09-04T10:29:30.182Z,30.00
2023-09-04T10:31:57.569Z,30.00
2023-09-04T10:34:25.827Z,30.00
2023-09-04T10:36:52.865Z,29.90
2023-09-04T10:39:20.752Z,30.10
2023-09-04T10:41:47.840Z,30.40
2023-09-04T10:44:51.280Z,30.60
2023-09-04T10:47:19.269Z,30.80
2023-09-04T10:49:49.380Z,30.90
2023-09-04T10:52:16.430Z,30.90
2023-09-04T10:54:43.776Z,30.80
2023-09-04T10:57:14.488Z,30.50
2023-09-04T11:00:02.054Z,30.50
2023-09-04T11:02:36.134Z,30.20
2023-09-04T11:05:04.265Z,30.20
2023-09-04T11:07:35.909Z,30.30
2023-09-04T11:10:07.418Z,30.30
2023-09-04T11:12:37.002Z,30.40
2023-09-04T11:15:12.805Z,30.60
2023-09-04T11:17:42.065Z,30.70
2023-09-04T11:20:10.800Z,30.90
2023-09-04T11:22:37.699Z,31.10
2023-09-04T11:25:05.019Z,31.10
2023-09-04T11:27:32.465Z,31.00
2023-09-04T11:30:04.296Z,30.90
2023-09-04T11:32:36.887Z,30.90
2023-09-04T11:35:04.664Z,30.90
2023-09-04T11:37:34.515Z,30.70
2023-09-04T11:40:04.997Z,30.80
2023-09-04T11:42:33.470Z,31.00
2023-09-04T11:45:00.509Z,31.20
2023-09-04T11:47:27.583Z,31.20
2023-09-04T11:49:54.496Z,31.30
2023-09-04T11:52:26.410Z,31.30
2023-09-04T11:54:54.382Z,31.40
2023-09-04T11:57:25.224Z,31.40
2023-09-04T11:59:52.118Z,31.50
2023-09-04T12:02:19.268Z,31.50
2023-09-04T12:04:47.665Z,31.50
2023-09-04T12:07:19.990Z,31.50
2023-09-04T12:09:47.141Z,31.50
2023-09-04T12:12:16.918Z,31.60
2023-09-04T12:14:46.140Z,31.70
2023-09-04T12:17:13.747Z,31.80
2023-09-04T12:19:43.353Z,31.90
2023-09-04T12:22:14.993Z,32.00
2023-09-04T12:25:01.875Z,32.10
2023-09-04T12:27:30.391Z,32.20
2023-09-04T12:29:57.944Z,32.20
2023-09-04T12:32:25.331Z,32.20
2023-09-04T12:35:05.191Z,32.20
2023-09-04T12:37:35.134Z,32.20
2023-09-04T12:40:02.063Z,32.10
2023-09-04T12:42:29.153Z,32.10
2023-09-04T12:44:56.284Z,32.00
2023-09-04T12:47:23.338Z,31.70
2023-09-04T12:49:50.703Z,31.50
2023-09-04T12:52:17.597Z,31.20
2023-09-04T12:54:44.585Z,31.10
2023-09-04T12:57:11.417Z,31.00
2023-09-04T12:59:38.398Z,30.90
2023-09-04T13:02:05.974Z,30.80
2023-09-04T13:04:33.036Z,30.60
2023-09-04T13:07:02.203Z,30.40
2023-09-04T13:09:29.569Z,30.20
2023-09-04T13:11:57.680Z,30.00
2023-09-04T13:14:24.599Z,29.90
2023-09-04T13:16:51.637Z,29.70
2023-09-04T13:19:18.502Z,29.60
2023-09-04T13:21:45.414Z,29.50
2023-09-04T13:24:12.641Z,29.40
2023-09-04T13:26:39.539Z,29.30
2023-09-04T13:29:06.372Z,29.10
2023-09-04T13:31:33.279Z,29.00
2023-09-04T13:34:00.200Z,28.90
2023-09-04T13:36:27.046Z,28.90
2023-09-04T13:38:53.922Z,28.90
2023-09-04T13:41:20.776Z,28.80
2023-09-04T13:43:47.610Z,28.70
2023-09-04T13:46:14.740Z,28.70
2023-09-04T13:48:41.761Z,28.70
2023-09-04T13:51:08.598Z,28.60
2023-09-04T13:53:35.484Z,28.60
2023-09-04T13:56:02.586Z,28.50
2023-09-04T13:58:29.396Z,28.50
2023-09-04T14:00:56.382Z,28.50
2023-09-04T14:03:23.317Z,28.50
2023-09-04T14:05:51.805Z,28.50
2023-09-04T14:08:18.797Z,28.50
2023-09-04T14:10:45.780Z,28.50
2023-09-04T14:13:12.808Z,28.50
2023-09-04T14:15:40.394Z,28.40
2023-09-04T14:18:07.650Z,28.40
2023-09-04T14:20:34.702Z,28.40
2023-09-04T14:23:01.604Z,28.40
2023-09-04T14:25:28.963Z,28.40
2023-09-04T14:27:55.924Z,28.40
2023-09-04T14:30:22.801Z,28.40
2023-09-04T14:32:49.634Z,28.50
2023-09-04T14:35:16.638Z,28.40
2023-09-04T14:37:43.546Z,28.50
2023-09-04T14:40:13.110Z,28.50
2023-09-04T14:42:40.419Z,28.50
2023-09-04T14:45:07.942Z,28.50
2023-09-04T14:47:36.080Z,28.60
2023-09-04T14:50:04.434Z,28.50
2023-09-04T14:52:31.265Z,28.50
2023-09-04T14:54:58.122Z,28.50
2023-09-04T14:57:25.022Z,28.50
2023-09-04T14:59:51.947Z,28.50
2023-09-04T15:02:18.892Z,28.50
2023-09-04T15:04:45.925Z,28.40
2023-09-04T15:07:15.708Z,28.40
2023-09-04T15:09:42.625Z,28.30
2023-09-04T15:12:09.670Z,28.30
2023-09-04T15:14:36.711Z,28.30
2023-09-04T15:17:03.831Z,28.30
2023-09-04T15:19:30.721Z,28.30
2023-09-04T15:21:57.561Z,28.30
2023-09-04T15:24:24.402Z,28.20
2023-09-04T15:26:51.355Z,28.20
2023-09-04T15:29:18.128Z,28.20
2023-09-04T15:31:45.041Z,28.20
2023-09-04T15:34:12.113Z,28.10
2023-09-04T15:36:40.654Z,28.10
2023-09-04T15:39:09.587Z,28.10
2023-09-04T15:41:36.455Z,28.10
2023-09-04T15:44:03.535Z,28.10
2023-09-04T15:46:30.753Z,28.20
2023-09-04T15:48:57.629Z,28.20
2023-09-04T15:51:25.097Z,28.10
2023-09-04T15:53:52.011Z,28.20
2023-09-04T15:56:18.836Z,28.10
2023-09-04T15:58:45.708Z,28.10
2023-09-04T16:01:12.671Z,28.10
2023-09-04T16:03:39.578Z,28.10
2023-09-04T16:06:09.466Z,28.10
2023-09-04T16:08:36.249Z,28.10
2023-09-04T16:11:03.173Z,28.10
2023-09-04T16:13:30.035Z,28.10
2023-09-04T16:15:57.705Z,28.10
2023-09-04T16:18:25.724Z,28.10
2023-09-04T16:20:53.028Z,28.10
2023-09-04T16:23:21.372Z,28.10
2023-09-04T16:25:54.027Z,28.10
2023-09-04T16:28:23.925Z,28.10
2023-09-04T16:30:53.827Z,28.00
2023-09-04T16:33:22.380Z,28.00
2023-09-04T16:35:49.276Z,28.00
2023-09-04T16:38:16.169Z,27.90
2023-09-04T16:40:45.760Z,27.90
2023-09-04T16:43:12.841Z,27.80
2023-09-04T16:45:39.718Z,27.80
2023-09-04T16:48:07.528Z,27.80
2023-09-04T16:50:34.609Z,27.80
2023-09-04T16:53:01.618Z,27.80
2023-09-04T16:55:28.511Z,27.80
2023-09-04T16:57:55.475Z,27.80
2023-09-04T17:00:22.431Z,27.80
2023-09-04T17:02:51.192Z,27.80
2023-09-04T17:05:21.813Z,27.70
2023-09-04T17:07:48.935Z,27.70
2023-09-04T17:10:16.023Z,27.70
2023-09-04T17:12:42.909Z,27.60
2023-09-04T17:15:10.614Z,27.50
2023-09-04T17:17:37.577Z,27.60
2023-09-04T17:20:05.230Z,27.60
2023-09-04T17:22:33.178Z,27.70
2023-09-04T17:25:00.041Z,27.70
2023-09-04T17:27:27.138Z,27.70
2023-09-04T17:29:53.930Z,27.70
2023-09-04T17:32:20.789Z,27.70
2023-09-04T17:34:47.726Z,27.70
2023-09-04T17:37:17.421Z,27.70
2023-09-04T17:39:44.708Z,27.60
2023-09-04T17:42:11.570Z,27.50
2023-09-04T17:44:38.486Z,27.40
2023-09-04T17:47:05.348Z,27.20
2023-09-04T17:49:33.345Z,27.10
2023-09-04T17:52:00.319Z,27.00
2023-09-04T17:54:27.290Z,26.90
2023-09-04T17:56:54.082Z,26.80
2023-09-04T17:59:20.904Z,26.70
2023-09-04T18:01:47.780Z,26.60
2023-09-04T18:04:17.504Z,26.50
2023-09-04T18:06:44.406Z,26.40
2023-09-04T18:09:11.354Z,26.40
2023-09-04T18:11:38.215Z,26.30
2023-09-04T18:14:05.235Z,26.30
2023-09-04T18:16:32.194Z,26.20
2023-09-04T18:18:59.022Z,26.20
2023-09-04T18:21:25.994Z,26.10
2023-09-04T18:23:52.846Z,26.00
2023-09-04T18:26:20.509Z,26.00
2023-09-04T18:28:47.371Z,26.00
2023-09-04T18:31:14.931Z,25.90
2023-09-04T18:33:42.392Z,25.80
2023-09-04T18:36:11.605Z,25.80
2023-09-04T18:38:39.776Z,25.80
2023-09-04T18:41:10.139Z,25.70
2023-09-04T18:43:37.191Z,25.60
2023-09-04T18:46:04.839Z,25.60
2023-09-04T18:48:32.284Z,25.50
2023-09-04T18:50:59.966Z,25.40
2023-09-04T18:53:26.906Z,25.40
2023-09-04T18:55:55.310Z,25.40
2023-09-04T18:58:26.172Z,25.30
2023-09-04T19:00:59.727Z,25.20
2023-09-04T19:03:27.665Z,25.20
2023-09-04T19:05:55.190Z,25.20
2023-09-04T19:08:24.756Z,25.10
2023-09-04T19:10:55.150Z,25.10
2023-09-04T19:13:22.772Z,25.10
2023-09-04T19:15:50.171Z,25.10
2023-09-04T19:18:17.768Z,25.10
2023-09-04T19:20:44.742Z,25.10
2023-09-04T19:23:11.676Z,25.10
2023-09-04T19:25:38.493Z,25.10
2023-09-04T19:28:06.453Z,25.10
2023-09-04T19:30:33.465Z,25.10
2023-09-04T19:33:00.576Z,25.10
2023-09-04T19:35:27.463Z,25.10
2023-09-04T19:37:54.727Z,25.10
2023-09-04T19:40:21.679Z,25.00
2023-09-04T19:42:48.603Z,25.00
2023-09-04T19:45:17.423Z,24.90
2023-09-04T19:47:44.748Z,24.90
2023-09-04T19:50:11.997Z,24.90
2023-09-04T19:52:39.996Z,24.80
2023-09-04T19:55:07.616Z,24.80
2023-09-04T19:57:35.986Z,24.70
2023-09-04T20:00:07.288Z,24.70
2023-09-04T20:02:43.558Z,24.60
2023-09-04T20:05:10.892Z,24.50
2023-09-04T20:07:38.617Z,24.50
2023-09-04T20:10:06.390Z,24.40
2023-09-04T20:12:33.305Z,24.30
2023-09-04T20:15:00.155Z,24.20
2023-09-04T20:17:27.019Z,24.10
2023-09-04T20:19:54.125Z,24.10
2023-09-04T20:22:22.855Z,24.10
2023-09-04T20:24:50.215Z,24.10
2023-09-04T20:27:17.125Z,24.10
2023-09-04T20:29:43.943Z,24.00
2023-09-04T20:32:10.953Z,24.00
2023-09-04T20:34:37.800Z,24.00
2023-09-04T20:37:05.426Z,24.00
2023-09-04T20:39:32.448Z,23.90
2023-09-04T20:42:01.855Z,23.90
2023-09-04T20:44:28.667Z,23.90
2023-09-04T20:46:55.511Z,23.80
2023-09-04T20:49:22.517Z,23.70
2023-09-04T20:51:49.277Z,23.70
2023-09-04T20:54:16.080Z,23.70
2023-09-04T20:56:42.983Z,23.70
2023-09-04T20:59:10.036Z,23.70
2023-09-04T21:01:36.938Z,23.70
2023-09-04T21:04:03.915Z,23.60
2023-09-04T21:06:30.717Z,23.40
2023-09-04T21:08:57.460Z,23.30
2023-09-04T21:11:24.301Z,23.30
2023-09-04T21:14:09.621Z,23.20
2023-09-04T21:16:55.186Z,23.20
2023-09-04T21:19:40.625Z,23.20
2023-09-04T21:22:25.959Z,23.20
2023-09-04T21:25:11.384Z,23.10
2023-09-04T21:27:56.745Z,23.10
2023-09-04T21:30:42.026Z,23.10
2023-09-04T21:33:28.038Z,23.10
2023-09-04T21:36:14.062Z,23.10
2023-09-04T21:38:59.362Z,23.10
2023-09-04T21:41:44.910Z,23.10
2023-09-04T21:44:30.466Z,23.10
2023-09-04T21:47:15.921Z,23.10
2023-09-04T21:50:01.453Z,23.00
2023-09-04T21:52:47.068Z,23.00
2023-09-04T21:55:32.431Z,23.00
2023-09-04T21:58:17.858Z,23.00
2023-09-04T22:01:03.464Z,22.90
2023-09-04T22:03:48.803Z,22.90
2023-09-04T22:06:34.103Z,22.80
2023-09-04T22:09:20.306Z,22.70
2023-09-04T22:12:06.563Z,22.70
2023-09-04T22:14:51.941Z,22.70
2023-09-04T22:17:37.366Z,22.70
2023-09-04T22:20:23.053Z,22.60
2023-09-04T22:23:08.325Z,22.70
2023-09-04T22:25:57.082Z,22.70
2023-09-04T22:28:42.384Z,22.70
2023-09-04T22:31:27.944Z,22.60
2023-09-04T22:34:13.357Z,22.60
2023-09-04T22:36:58.771Z,22.40
2023-09-04T22:39:43.956Z,22.40
2023-09-04T22:42:29.699Z,22.40
2023-09-04T22:45:14.870Z,22.50
2023-09-04T22:48:00.543Z,22.50
2023-09-04T22:50:45.886Z,22.50
2023-09-04T22:53:31.528Z,22.50
2023-09-04T22:56:17.099Z,22.50
2023-09-04T22:59:02.539Z,22.40
2023-09-04T23:01:48.272Z,22.40
2023-09-04T23:04:33.717Z,22.30
2023-09-04T23:07:19.096Z,22.30
2023-09-04T23:10:04.536Z,22.30
2023-09-04T23:12:50.012Z,22.30
2023-09-04T23:15:35.612Z,22.40
2023-09-04T23:18:21.234Z,22.30
2023-09-04T23:21:06.898Z,22.40
2023-09-04T23:23:36.611Z,22.40
2023-09-04T23:26:06.993Z,22.40
2023-09-04T23:28:34.223Z,22.40
2023-09-04T23:31:01.460Z,22.40
2023-09-04T23:33:39.158Z,22.40
2023-09-04T23:36:26.018Z,22.30
2023-09-04T23:39:12.425Z,22.30
2023-09-04T23:41:57.935Z,22.30
2023-09-04T23:44:43.438Z,22.20
2023-09-04T23:47:11.404Z,22.30
2023-09-04T23:49:38.494Z,22.30
2023-09-04T23:52:07.176Z,22.30
2023-09-04T23:54:34.205Z,22.20
2023-09-04T23:57:01.755Z,22.30
2023-09-04T23:59:31.642Z,22.20
